createdAt,value
2022-10-28T00:01:53.358Z,100162.91
2022-10-28T00:04:22.919Z,100165.81
2022-10-28T00:06:50.920Z,100164.63
2022-10-28T00:09:18.836Z,100160.19
2022-10-28T00:11:46.695Z,100159.94
2022-10-28T00:14:15.058Z,100155.31
2022-10-28T00:16:42.993Z,100162.81
2022-10-28T00:19:13.127Z,100146.50
2022-10-28T00:21:44.709Z,100153.44
2022-10-28T00:24:14.071Z,100141.81
2022-10-28T00:26:43.663Z,100142.03
2022-10-28T00:29:13.727Z,100143.94
2022-10-28T00:31:41.877Z,100155.22
2022-10-28T00:34:13.211Z,100146.53
2022-10-28T00:36:44.001Z,100155.03
2022-10-28T00:39:15.381Z,100155.75
2022-10-28T00:41:45.677Z,100174.97
2022-10-28T00:44:50.687Z,100168.94
2022-10-28T00:47:28.663Z,100156.78
2022-10-28T00:50:02.605Z,100158.88
2022-10-28T00:52:38.717Z,100155.28
2022-10-28T00:55:08.103Z,100154.06
2022-10-28T00:57:38.686Z,100151.00
2022-10-28T01:00:09.326Z,100135.84
2022-10-28T01:02:48.521Z,100144.97
2022-10-28T01:05:19.741Z,100150.78
2022-10-28T01:07:49.314Z,100161.28
2022-10-28T01:10:17.486Z,100165.50
2022-10-28T01:12:59.846Z,100170.25
2022-10-28T01:15:38.292Z,100173.63
2022-10-28T01:18:19.825Z,100153.16
2022-10-28T01:21:27.799Z,100159.41
2022-10-28T01:24:11.290Z,100165.31
2022-10-28T01:27:02.103Z,100155.38
2022-10-28T01:30:20.411Z,100159.19
2022-10-28T01:32:55.149Z,100153.50
2022-10-28T01:35:28.675Z,100158.97
2022-10-28T01:38:13.944Z,100158.34
2022-10-28T01:40:47.968Z,100160.78
2022-10-28T01:43:24.425Z,100158.81
2022-10-28T01:45:58.920Z,100166.47
2022-10-28T01:48:33.699Z,100160.50
2022-10-28T01:51:09.038Z,100158.69
2022-10-28T01:53:41.716Z,100163.13
2022-10-28T01:56:18.655Z,100163.47
2022-10-28T01:58:47.126Z,100158.56
2022-10-28T02:01:15.717Z,100160.41
2022-10-28T02:03:46.914Z,100157.53
2022-10-28T02:06:18.396Z,100166.47
2022-10-28T02:09:10.982Z,100164.31
2022-10-28T02:12:01.928Z,100168.47
2022-10-28T02:14:46.193Z,100166.47
2022-10-28T02:17:26.128Z,100178.88
2022-10-28T02:20:08.494Z,100176.38
2022-10-28T02:22:46.075Z,100170.47
2022-10-28T02:25:18.266Z,100165.97
2022-10-28T02:27:50.438Z,100167.44
2022-10-28T02:30:24.814Z,100166.63
2022-10-28T02:32:57.661Z,100171.78
2022-10-28T02:35:32.447Z,100175.03
2022-10-28T02:38:04.653Z,100177.22
2022-10-28T02:40:35.158Z,100180.66
2022-10-28T02:43:05.446Z,100177.97
2022-10-28T02:45:41.963Z,100171.13
2022-10-28T02:48:15.025Z,100173.59
2022-10-28T02:50:49.424Z,100171.88
2022-10-28T02:53:21.914Z,100171.00
2022-10-28T02:55:59.116Z,100172.41
2022-10-28T02:58:27.186Z,100171.00
2022-10-28T03:00:55.131Z,100165.75
2022-10-28T03:03:23.027Z,100174.44
2022-10-28T03:05:52.286Z,100186.53
2022-10-28T03:08:20.393Z,100168.34
2022-10-28T03:10:48.323Z,100182.13
2022-10-28T03:13:16.295Z,100179.06
2022-10-28T03:15:44.301Z,100180.69
2022-10-28T03:18:12.232Z,100174.53
2022-10-28T03:20:40.120Z,100165.75
2022-10-28T03:23:09.366Z,100162.78
2022-10-28T03:25:37.217Z,100166.00
2022-10-28T03:28:05.353Z,100166.97
2022-10-28T03:30:33.393Z,100169.94
2022-10-28T03:33:01.426Z,100170.13
2022-10-28T03:35:29.290Z,100175.09
2022-10-28T03:37:57.236Z,100168.72
2022-10-28T03:40:26.581Z,100171.88
2022-10-28T03:42:54.670Z,100170.59
2022-10-28T03:45:26.474Z,100164.16
2022-10-28T03:47:54.679Z,100165.25
2022-10-28T03:50:22.862Z,100165.56
2022-10-28T03:52:50.728Z,100168.22
2022-10-28T03:55:18.950Z,100166.72
2022-10-28T03:57:48.228Z,100167.28
2022-10-28T04:00:17.975Z,100170.56
2022-10-28T04:02:50.935Z,100176.47
2022-10-28T04:05:19.134Z,100170.09
2022-10-28T04:07:49.688Z,100172.84
2022-10-28T04:10:17.667Z,100173.44
2022-10-28T04:12:45.570Z,100195.66
2022-10-28T04:15:15.249Z,100180.84
2022-10-28T04:17:43.144Z,100179.06
2022-10-28T04:20:36.366Z,100179.78
2022-10-28T04:23:04.560Z,100187.06
2022-10-28T04:25:32.592Z,100189.88
2022-10-28T04:28:00.414Z,100199.16
2022-10-28T04:30:54.757Z,100205.28
2022-10-28T04:33:22.668Z,100215.78
2022-10-28T04:35:50.525Z,100211.91
2022-10-28T04:38:18.612Z,100215.94
2022-10-28T04:40:49.032Z,100218.50
2022-10-28T04:43:16.887Z,100220.25
2022-10-28T04:45:46.599Z,100222.44
2022-10-28T04:48:15.895Z,100226.44
2022-10-28T04:50:43.939Z,100222.28
2022-10-28T04:53:11.981Z,100225.13
2022-10-28T04:55:40.118Z,100224.72
2022-10-28T04:58:08.070Z,100209.84
2022-10-28T05:00:36.030Z,100210.88
2022-10-28T05:03:04.046Z,100211.94
2022-10-28T05:05:33.619Z,100211.72
2022-10-28T05:08:01.844Z,100199.88
2022-10-28T05:10:30.354Z,100201.28
2022-10-28T05:12:58.298Z,100196.91
2022-10-28T05:15:26.920Z,100200.34
2022-10-28T05:17:58.177Z,100205.66
2022-10-28T05:20:26.173Z,100202.47
2022-10-28T05:22:57.122Z,100202.28
2022-10-28T05:25:25.442Z,100197.75
2022-10-28T05:27:53.627Z,100190.84
2022-10-28T05:30:21.597Z,100191.69
2022-10-28T05:32:51.652Z,100203.78
2022-10-28T05:35:22.421Z,100200.50
2022-10-28T05:37:50.300Z,100196.25
2022-10-28T05:40:19.642Z,100197.88
2022-10-28T05:42:53.748Z,100191.09
2022-10-28T05:45:21.871Z,100195.06
2022-10-28T05:47:50.153Z,100199.91
2022-10-28T05:50:20.480Z,100196.84
2022-10-28T05:52:49.426Z,100197.88
2022-10-28T05:55:20.043Z,100193.34
2022-10-28T05:57:48.133Z,100198.56
2022-10-28T06:00:17.254Z,100195.59
2022-10-28T06:02:45.384Z,100191.97
2022-10-28T06:05:14.150Z,100191.25
2022-10-28T06:07:42.750Z,100193.66
2022-10-28T06:10:12.528Z,100196.38
2022-10-28T06:12:40.179Z,100197.16
2022-10-28T06:15:08.743Z,100200.22
2022-10-28T06:17:36.604Z,100206.59
2022-10-28T06:20:05.578Z,100213.00
2022-10-28T06:22:33.391Z,100215.63
2022-10-28T06:25:01.405Z,100201.47
2022-10-28T06:27:29.253Z,100216.19
2022-10-28T06:29:58.477Z,100208.06
2022-10-28T06:32:26.481Z,100214.78
2022-10-28T06:34:54.372Z,100216.31
2022-10-28T06:37:22.368Z,100217.34
2022-10-28T06:39:52.093Z,100232.06
2022-10-28T06:42:20.352Z,100228.00
2022-10-28T06:44:49.252Z,100233.31
2022-10-28T06:47:20.206Z,100236.91
2022-10-28T06:49:48.168Z,100230.16
2022-10-28T06:52:16.244Z,100235.66
2022-10-28T06:54:44.197Z,100243.38
2022-10-28T06:57:12.428Z,100250.38
2022-10-28T06:59:40.399Z,100235.28
2022-10-28T07:02:08.651Z,100248.34
2022-10-28T07:04:37.958Z,100247.31
2022-10-28T07:07:06.243Z,100239.97
2022-10-28T07:09:36.509Z,100242.09
2022-10-28T07:12:05.593Z,100241.78
2022-10-28T07:14:34.772Z,100253.06
2022-10-28T07:17:04.458Z,100253.78
2022-10-28T07:19:32.432Z,100251.84
2022-10-28T07:22:01.815Z,100253.19
2022-10-28T07:24:29.718Z,100253.41
2022-10-28T07:26:57.955Z,100251.84
2022-10-28T07:29:28.928Z,100261.50
2022-10-28T07:31:57.266Z,100256.50
2022-10-28T07:34:27.264Z,100262.75
2022-10-28T07:36:56.389Z,100268.59
2022-10-28T07:39:25.885Z,100266.56
2022-10-28T07:41:53.956Z,100265.50
2022-10-28T07:44:21.993Z,100257.31
2022-10-28T07:46:53.063Z,100262.13
2022-10-28T07:49:23.713Z,100267.72
2022-10-28T07:51:51.857Z,100268.06
2022-10-28T07:54:19.725Z,100266.66
2022-10-28T07:56:49.039Z,100269.28
2022-10-28T07:59:17.101Z,100268.50
2022-10-28T08:01:45.165Z,100279.75
2022-10-28T08:04:13.286Z,100282.47
2022-10-28T08:06:41.281Z,100289.38
2022-10-28T08:09:09.275Z,100297.75
2022-10-28T08:11:37.171Z,100295.81
2022-10-28T08:14:06.497Z,100297.34
2022-10-28T08:16:34.379Z,100291.88
2022-10-28T08:19:07.506Z,100299.59
2022-10-28T08:21:35.764Z,100310.41
2022-10-28T08:24:03.640Z,100312.53
2022-10-28T08:26:31.583Z,100288.25
2022-10-28T08:29:03.254Z,100278.91
2022-10-28T08:31:34.809Z,100271.13
2022-10-28T08:34:02.769Z,100249.75
2022-10-28T08:36:30.781Z,100246.34
2022-10-28T08:39:00.163Z,100238.16
2022-10-28T08:41:36.072Z,100230.84
2022-10-28T08:44:22.487Z,100227.28
2022-10-28T08:47:01.857Z,100215.34
2022-10-28T08:49:35.177Z,100187.69
2022-10-28T08:52:09.296Z,100148.38
2022-10-28T08:54:41.485Z,100146.66
2022-10-28T08:57:18.167Z,100142.72
2022-10-28T08:59:47.503Z,100143.28
2022-10-28T09:02:22.415Z,100156.09
2022-10-28T09:04:55.523Z,100152.97
2022-10-28T09:07:25.231Z,100174.38
2022-10-28T09:09:54.111Z,100180.16
2022-10-28T09:12:36.421Z,100185.56
2022-10-28T09:15:19.433Z,100209.63
2022-10-28T09:17:54.766Z,100182.44
2022-10-28T09:20:31.970Z,100160.13
2022-10-28T09:23:03.673Z,100140.94
2022-10-28T09:25:40.161Z,100158.06
2022-10-28T09:28:28.252Z,100155.19
2022-10-28T09:31:06.065Z,100180.91
2022-10-28T09:34:03.286Z,100188.66
2022-10-28T09:36:37.822Z,100211.13
2022-10-28T09:39:10.778Z,100221.25
2022-10-28T09:41:42.499Z,100239.00
2022-10-28T09:44:16.786Z,100243.91
2022-10-28T09:46:47.925Z,100255.50
2022-10-28T09:49:26.029Z,100243.88
2022-10-28T09:52:00.448Z,100242.31
2022-10-28T09:54:33.376Z,100227.88
2022-10-28T09:57:01.885Z,100231.78
2022-10-28T09:59:38.584Z,100259.88
2022-10-28T10:02:06.871Z,100257.78
2022-10-28T10:04:36.819Z,100283.56
2022-10-28T10:07:09.389Z,100291.97
2022-10-28T10:12:09.507Z,100290.47
2022-10-28T10:14:41.501Z,100279.13
2022-10-28T10:17:16.106Z,100289.06
2022-10-28T10:20:04.887Z,100273.81
2022-10-28T10:22:34.328Z,100272.78
2022-10-28T10:25:02.659Z,100256.66
2022-10-28T10:27:31.836Z,100273.44
2022-10-28T10:30:00.417Z,100258.13
2022-10-28T10:32:32.047Z,100259.31
2022-10-28T10:35:05.244Z,100274.56
2022-10-28T10:37:36.243Z,100273.78
2022-10-28T10:40:18.895Z,100293.00
2022-10-28T10:42:57.646Z,100300.59
2022-10-28T10:45:34.920Z,100299.94
2022-10-28T10:48:14.851Z,100283.91
2022-10-28T10:50:46.631Z,100294.66
2022-10-28T10:53:21.579Z,100292.41
2022-10-28T10:55:52.229Z,100291.38
2022-10-28T10:58:22.796Z,100284.88
2022-10-28T11:00:52.785Z,100308.66
2022-10-28T11:03:25.320Z,100304.56
2022-10-28T11:06:18.397Z,100325.94
2022-10-28T11:08:45.120Z,100367.81
2022-10-28T11:11:15.473Z,100418.28
2022-10-28T11:13:46.221Z,100434.84
2022-10-28T11:16:23.247Z,100431.91
2022-10-28T11:22:00.355Z,100437.94
2022-10-28T11:24:46.012Z,100434.84
2022-10-28T11:27:26.816Z,100448.38
2022-10-28T11:29:55.688Z,100440.31
2022-10-28T11:32:43.999Z,100451.19
2022-10-28T11:35:43.912Z,100433.03
2022-10-28T11:38:41.968Z,100426.06
2022-10-28T11:41:25.416Z,100424.41
2022-10-28T11:43:57.652Z,100439.13
2022-10-28T11:46:44.949Z,100426.47
2022-10-28T11:49:52.551Z,100424.94
2022-10-28T11:52:45.477Z,100422.03
2022-10-28T11:55:28.595Z,100422.16
2022-10-28T11:58:09.172Z,100430.97
2022-10-28T12:01:05.670Z,100420.81
2022-10-28T12:03:48.820Z,100436.31
2022-10-28T12:06:23.957Z,100427.81
2022-10-28T12:11:59.268Z,100420.44
2022-10-28T12:14:36.315Z,100434.28
2022-10-28T12:17:14.574Z,100432.09
2022-10-28T12:20:12.487Z,100424.81
2022-10-28T12:22:48.619Z,100428.41
2022-10-28T12:25:20.207Z,100433.53
2022-10-28T12:27:52.340Z,100428.72
2022-10-28T12:30:23.708Z,100428.00
2022-10-28T12:32:56.295Z,100426.97
2022-10-28T12:35:26.725Z,100422.94
2022-10-28T12:38:04.306Z,100426.22
2022-10-28T12:40:40.112Z,100421.38
2022-10-28T12:43:14.989Z,100416.06
2022-10-28T12:45:44.467Z,100417.84
2022-10-28T12:48:42.581Z,100418.00
2022-10-28T12:51:17.353Z,100419.66
2022-10-28T12:53:50.254Z,100422.91
2022-10-28T12:56:27.249Z,100426.69
2022-10-28T13:01:33.443Z,99919.00
2022-10-28T13:04:02.495Z,99738.19
2022-10-28T13:06:48.784Z,99849.47
2022-10-28T13:09:43.526Z,99893.13
2022-10-28T13:12:27.819Z,100000.06
2022-10-28T13:15:31.882Z,100064.22
2022-10-28T13:18:51.047Z,100040.44
2022-10-28T13:21:44.839Z,100034.59
2022-10-28T13:24:20.980Z,100088.56
2022-10-28T13:26:50.278Z,100152.06
2022-10-28T13:29:43.922Z,100161.44
2022-10-28T13:32:37.493Z,100171.22
2022-10-28T13:35:16.155Z,100046.31
2022-10-28T13:37:48.452Z,100018.22
2022-10-28T13:41:04.866Z,100002.16
2022-10-28T13:43:59.002Z,99976.16
2022-10-28T13:46:59.882Z,99915.50
2022-10-28T13:49:30.095Z,99867.69
2022-10-28T13:52:02.684Z,99843.25
2022-10-28T13:54:52.519Z,99835.59
2022-10-28T13:57:27.667Z,99885.44
2022-10-28T13:59:58.538Z,99919.19
2022-10-28T14:02:36.011Z,99912.41
2022-10-28T14:05:08.075Z,99846.25
2022-10-28T14:07:41.751Z,99792.38
2022-10-28T14:10:21.070Z,99766.56
2022-10-28T14:12:53.814Z,99757.38
2022-10-28T14:15:29.186Z,99761.22
2022-10-28T14:18:10.293Z,99717.16
2022-10-28T14:21:01.692Z,99578.81
2022-10-28T14:24:20.611Z,99653.44
2022-10-28T14:27:28.244Z,99805.91
2022-10-28T14:30:20.294Z,99789.00
2022-10-28T14:33:08.088Z,99733.78
2022-10-28T14:35:41.622Z,99685.56
2022-10-28T14:38:48.534Z,99674.97
2022-10-28T14:41:45.076Z,99680.59
2022-10-28T14:44:29.392Z,99672.78
2022-10-28T14:47:14.588Z,99694.69
2022-10-28T14:49:48.254Z,99696.19
2022-10-28T14:52:19.247Z,99689.81
2022-10-28T14:54:52.130Z,99693.94
2022-10-28T14:57:22.289Z,99684.66
2022-10-28T15:00:04.299Z,99683.09
2022-10-28T15:02:34.548Z,99706.38
2022-10-28T15:05:05.428Z,99738.94
2022-10-28T15:07:37.971Z,99736.66
2022-10-28T15:10:18.900Z,99721.31
2022-10-28T15:12:49.522Z,99747.84
2022-10-28T15:15:19.734Z,99779.63
2022-10-28T15:17:47.981Z,99793.88
2022-10-28T15:20:26.317Z,99819.78
2022-10-28T15:22:55.889Z,99828.41
2022-10-28T15:25:26.249Z,99841.28
2022-10-28T15:27:54.944Z,99893.53
2022-10-28T15:30:24.779Z,99911.09
2022-10-28T15:32:53.702Z,99917.59
2022-10-28T15:35:38.951Z,99938.31
2022-10-28T15:38:39.268Z,99947.91
2022-10-28T15:41:39.948Z,99962.53
2022-10-28T15:44:25.851Z,99961.88
2022-10-28T15:46:54.288Z,99984.91
2022-10-28T15:49:35.049Z,99983.22
2022-10-28T15:52:38.789Z,99963.25
2022-10-28T15:55:47.540Z,100009.81
2022-10-28T15:58:36.537Z,100029.38
2022-10-28T16:01:06.687Z,100046.97
2022-10-28T16:03:43.781Z,100051.00
2022-10-28T16:06:31.860Z,100064.03
2022-10-28T16:09:08.494Z,100088.75
2022-10-28T16:11:41.392Z,100118.59
2022-10-28T16:14:36.961Z,100148.47
2022-10-28T16:17:07.380Z,100163.66
2022-10-28T16:19:39.178Z,100188.84
2022-10-28T16:22:12.016Z,100194.00
2022-10-28T16:24:39.986Z,100201.25
2022-10-28T16:27:31.372Z,100209.13
2022-10-28T16:30:00.715Z,100211.94
2022-10-28T16:32:34.910Z,100228.78
2022-10-28T16:35:04.561Z,100228.47
2022-10-28T16:37:35.159Z,100200.19
2022-10-28T16:40:37.586Z,100221.94
2022-10-28T16:43:01.589Z,100248.84
2022-10-28T16:45:31.010Z,100255.72
2022-10-28T16:47:58.895Z,100249.72
2022-10-28T16:50:26.846Z,100247.28
2022-10-28T16:52:58.056Z,100250.75
2022-10-28T16:55:27.500Z,100225.06
2022-10-28T16:57:55.635Z,100198.72
2022-10-28T17:00:23.758Z,100190.50
2022-10-28T17:02:54.077Z,100195.81
2022-10-28T17:05:24.198Z,100162.13
2022-10-28T17:07:55.806Z,100098.44
2022-10-28T17:10:24.452Z,100076.19
2022-10-28T17:12:52.665Z,100096.38
2022-10-28T17:15:20.988Z,100118.78
2022-10-28T17:17:54.161Z,100129.59
2022-10-28T17:20:22.420Z,100098.97
2022-10-28T17:22:50.384Z,100098.78
2022-10-28T17:25:18.547Z,100099.63
2022-10-28T17:27:48.393Z,100093.34
2022-10-28T17:30:18.410Z,100082.72
2022-10-28T17:32:50.145Z,100085.94
2022-10-28T17:35:20.489Z,100072.09
2022-10-28T17:37:48.659Z,100047.66
2022-10-28T17:40:17.217Z,100026.78
2022-10-28T17:42:45.173Z,100057.88
2022-10-28T17:45:16.580Z,100048.13
2022-10-28T17:47:48.275Z,100046.94
2022-10-28T17:50:16.247Z,100051.91
2022-10-28T17:52:45.379Z,100068.31
2022-10-28T17:55:13.311Z,100072.56
2022-10-28T17:57:41.092Z,100096.63
2022-10-28T18:00:10.649Z,100115.03
2022-10-28T18:02:41.522Z,100133.78
2022-10-28T18:05:09.934Z,100178.19
2022-10-28T18:07:37.777Z,100221.91
2022-10-28T18:10:08.830Z,100246.81
2022-10-28T18:12:37.049Z,100272.22
2022-10-28T18:15:06.200Z,100322.88
2022-10-28T18:17:34.257Z,100388.09
2022-10-28T18:20:02.580Z,100406.09
2022-10-28T18:22:30.829Z,100451.44
2022-10-28T18:24:58.844Z,100476.63
2022-10-28T18:27:40.594Z,100533.84
2022-10-28T18:30:09.823Z,100567.38
2022-10-28T18:32:40.023Z,100603.47
2022-10-28T18:35:08.630Z,100633.22
2022-10-28T18:37:36.890Z,100671.91
2022-10-28T18:40:06.206Z,100738.72
2022-10-28T18:42:35.983Z,100812.91
2022-10-28T18:45:05.636Z,101033.59
2022-10-28T18:47:35.983Z,101065.47
2022-10-28T18:50:07.853Z,101093.03
2022-10-28T18:52:35.957Z,101096.88
2022-10-28T18:55:04.144Z,101121.72
2022-10-28T18:57:32.338Z,101106.47
2022-10-28T19:00:18.794Z,101109.75
2022-10-28T19:02:48.075Z,101103.34
2022-10-28T19:05:16.303Z,101042.31
2022-10-28T19:07:44.814Z,101049.75
2022-10-28T19:10:13.404Z,101030.25
2022-10-28T19:12:44.948Z,101005.13
2022-10-28T19:15:18.150Z,100978.22
2022-10-28T19:17:46.210Z,100866.03
2022-10-28T19:20:14.102Z,100852.09
2022-10-28T19:22:42.412Z,100828.84
2022-10-28T19:25:10.769Z,100803.56
2022-10-28T19:27:44.426Z,100784.31
2022-10-28T19:32:59.655Z,100754.16
2022-10-28T19:35:27.820Z,100739.53
2022-10-28T19:37:55.857Z,100732.78
2022-10-28T19:40:23.825Z,100720.69
2022-10-28T19:42:54.073Z,100717.44
2022-10-28T19:45:23.921Z,100714.81
2022-10-28T19:47:52.687Z,100718.56
2022-10-28T19:50:21.479Z,100718.13
2022-10-28T19:52:49.534Z,100722.16
2022-10-28T19:55:18.514Z,100718.44
2022-10-28T19:57:48.974Z,100720.84
2022-10-28T20:00:20.253Z,100719.97
2022-10-28T20:02:49.681Z,100715.13
2022-10-28T20:05:17.809Z,100716.41
2022-10-28T20:07:45.994Z,100714.69
2022-10-28T20:10:14.148Z,100711.38
2022-10-28T20:12:43.245Z,100715.97
2022-10-28T20:15:18.572Z,100701.50
2022-10-28T20:17:46.514Z,100713.38
2022-10-28T20:20:16.054Z,100712.81
2022-10-28T20:22:49.983Z,100711.22
2022-10-28T20:25:18.068Z,100709.94
2022-10-28T20:27:45.993Z,100700.88
2022-10-28T20:30:14.707Z,100707.22
2022-10-28T20:32:42.646Z,100707.31
2022-10-28T20:35:11.116Z,100704.06
2022-10-28T20:37:40.459Z,100699.34
2022-10-28T20:40:09.540Z,100694.16
2022-10-28T20:42:39.771Z,100685.09
2022-10-28T20:45:08.382Z,100687.25
2022-10-28T20:47:36.294Z,100682.94
2022-10-28T20:50:06.848Z,100679.63
2022-10-28T20:52:34.973Z,100683.22
2022-10-28T20:55:04.560Z,100682.47
2022-10-28T20:57:35.704Z,100683.75
2022-10-28T21:00:03.668Z,100684.94
2022-10-28T21:02:31.875Z,100675.88
2022-10-28T21:04:59.897Z,100677.28
2022-10-28T21:07:28.064Z,100669.09
2022-10-28T21:09:59.198Z,100666.38
2022-10-28T21:12:28.484Z,100666.53
2022-10-28T21:14:56.400Z,100656.75
2022-10-28T21:17:24.574Z,100657.06
2022-10-28T21:19:52.738Z,100656.34
2022-10-28T21:22:20.697Z,100653.88
2022-10-28T21:24:48.646Z,100648.72
2022-10-28T21:27:16.624Z,100638.41
2022-10-28T21:29:45.951Z,100642.41
2022-10-28T21:32:16.783Z,100638.63
2022-10-28T21:34:44.765Z,100609.41
2022-10-28T21:37:12.623Z,100602.94
2022-10-28T21:39:40.937Z,100611.25
2022-10-28T21:42:08.902Z,100613.09
2022-10-28T21:44:36.672Z,100608.09
2022-10-28T21:47:05.952Z,100607.66
2022-10-28T21:49:33.994Z,100600.81
2022-10-28T21:52:02.174Z,100597.06
2022-10-28T21:54:30.010Z,100592.47
2022-10-28T21:56:58.212Z,100594.22
2022-10-28T21:59:29.175Z,100589.91
2022-10-28T22:01:57.194Z,100585.59
2022-10-28T22:04:26.696Z,100587.59
2022-10-28T22:06:54.609Z,100585.31
2022-10-28T22:09:22.580Z,100581.56
2022-10-28T22:11:50.539Z,100581.13
2022-10-28T22:14:18.656Z,100579.97
2022-10-28T22:16:46.578Z,100580.28
2022-10-28T22:19:16.159Z,100576.28
2022-10-28T22:21:45.427Z,100571.53
2022-10-28T22:24:13.371Z,100572.41
2022-10-28T22:26:41.348Z,100576.13
2022-10-28T22:29:09.226Z,100561.94
2022-10-28T22:31:37.354Z,100563.22
2022-10-28T22:34:06.341Z,100566.38
2022-10-28T22:36:34.262Z,100558.22
2022-10-28T22:39:03.564Z,100555.75
2022-10-28T22:41:32.974Z,100562.94
2022-10-28T22:44:02.414Z,100566.38
2022-10-28T22:46:43.307Z,100561.94
2022-10-28T22:49:11.182Z,100555.78
2022-10-28T22:51:39.286Z,100555.19
2022-10-28T22:54:08.499Z,100568.25
2022-10-28T22:56:36.528Z,100574.97
2022-10-28T22:59:04.559Z,100578.59
2022-10-28T23:01:32.540Z,100567.78
2022-10-28T23:04:00.961Z,100570.66
2022-10-28T23:06:30.158Z,100569.09
2022-10-28T23:08:58.458Z,100572.94
2022-10-28T23:11:27.890Z,100586.84
2022-10-28T23:13:56.985Z,100589.13
2022-10-28T23:16:25.985Z,100594.13
2022-10-28T23:18:54.172Z,100590.69
2022-10-28T23:21:23.643Z,100578.63
2022-10-28T23:23:54.802Z,100581.91
2022-10-28T23:26:24.012Z,100583.75
2022-10-28T23:28:54.819Z,100576.56
2022-10-28T23:31:23.984Z,100576.59
2022-10-28T23:34:01.037Z,100567.09
2022-10-28T23:36:29.018Z,100562.22
2022-10-28T23:38:57.795Z,100569.66
2022-10-28T23:41:25.657Z,100569.91
2022-10-28T23:43:55.060Z,100574.06
2022-10-28T23:46:23.215Z,100563.31
2022-10-28T23:48:51.264Z,100547.53
2022-10-28T23:51:20.438Z,100533.19
2022-10-28T23:53:48.396Z,100516.56
2022-10-28T23:56:16.351Z,100507.94
2022-10-28T23:58:44.398Z,100499.94
